Weaver, AL

7:25 PM CDT on March 31, 2015 (GMT -0500)
Albertville | | Change Station
CLOSE
Current Station
Airport
Location: Albertville,
Elevation: 1033 ft
Nearby Weather Stations
Active Advisory: Severe Thunderstorm Watch Active Notice: Local Storm Report

Elev 1033 ft 34.23 °N, 86.26 °W | Updated 30 minutes ago

Thunderstorm
Thunderstorm
59 °F
Feels Like 59 °F
N
0
Wind Variable Wind from North

Today
High -- | Low -- °F
--% Chance of Precip.
Yesterday
High -- | Low -- °F
Precip. -- in
6:32 AM 7:03 PM
Waxing Gibbous, 89% visible
Pressure 29.94 in
Visibility 10.0 miles
Clouds Scattered Clouds 5000 ft
Mostly Cloudy 11000 ft
Dew Point 59 °F
Humidity 100%
Rainfall 0.14 in
Snow Depth Not available.
UV 0 out of 12
Pollen 8.60 out of 12
Air Quality Not available.
Flu Activity Not available.
METAR K8A0 312355Z AUTO 00000KT 10SM -TSRA SCT050 BKN110 15/15 A2994 RMK AO2 P0007 LTG DSNT ALQS

More Conditions Fewer Conditions

Pressure 29.94 in
Visibility 10.0 miles
Clouds Scattered Clouds 5000 ft
Mostly Cloudy 11000 ft
Dew Point 59 °F
Humidity 100%
Rainfall 0.14 in
Snow Depth Not available.
UV 0 out of 12
Pollen 8.60 out of 12
Air Quality Not available.
Flu Activity Not available.
METAR K8A0 312355Z AUTO 00000KT 10SM -TSRA SCT050 BKN110 15/15 A2994 RMK AO2 P0007 LTG DSNT ALQS

More Conditions Fewer Conditions

10-Day Weather Forecast

Almanac

Astronomy

Mar. 31, 2015 Rise Set
Actual Time
Civil Twilight
Nautical Twilight
Astronomical Twilight
Moon
Length of Visible Light
Length of Day
Tomorrow will be .
, % of the Moon is Illuminated

Today's Extremes

State Highs State Lows

Community

WunderPhotos

Upload Photos

1,809,887 photos uploaded!

WunderBlogs® & News

Nearby

Air Quality

  Air Quality AQ Index Pollutant
Not available.

Snow Depth

Station Depth Elevation

Earthquake Activity

City Distance Mag. Time & Date
Minimum magnitude displayed is 2.5.

Coastal Water Temperatures

Place Temperature

Stations

Nearby Weather Stations

Station Location Temp. Windchill Dew Point Humidity Wind Precip. Elev Updated Type
                   
Severe Thunderstorm Watch
Statement as of 8:24 PM EDT on March 31, 2015

Severe Thunderstorm Watch 9 remains in effect until 1100 PM EDT
for the following locations


Al
. Alabama counties included are

Autauga Barbour Bibb
Blount Bullock Calhoun
Chambers Cherokee Chilton
Clay Cleburne Coosa
Elmore Etowah Fayette
Jefferson Lamar Lee
Macon Marion Montgomery
Pickens Randolph Russell
St. Clair Shelby Talladega
Tallapoosa Tuscaloosa Walker
Winston